createdAt,value
2019-02-24T00:00:36.404Z,17.12
2019-02-24T00:03:02.735Z,15.23
2019-02-24T00:05:29.001Z,15.88
2019-02-24T00:07:55.202Z,16.10
2019-02-24T00:10:21.486Z,17.12
2019-02-24T00:12:48.052Z,15.88
2019-02-24T00:15:14.271Z,15.00
2019-02-24T00:17:40.498Z,13.28
2019-02-24T00:20:07.222Z,14.35
2019-02-24T00:22:33.482Z,17.80
2019-02-24T00:24:59.695Z,16.80
2019-02-24T00:27:25.920Z,16.67
2019-02-24T00:29:52.166Z,14.25
2019-02-24T00:32:18.699Z,15.58
2019-02-24T00:34:44.942Z,16.10
2019-02-24T00:37:11.150Z,13.80
2019-02-24T00:39:37.686Z,15.68
2019-02-24T00:42:03.922Z,18.27
2019-02-24T00:44:30.138Z,19.95
2019-02-24T00:46:56.805Z,14.40
2019-02-24T00:49:23.030Z,16.87
2019-02-24T00:51:49.240Z,16.55
2019-02-24T00:54:15.464Z,15.30
2019-02-24T00:56:41.711Z,15.58
2019-02-24T00:59:07.933Z,20.48
2019-02-24T01:01:34.156Z,17.60
2019-02-24T01:04:00.371Z,16.42
2019-02-24T01:06:26.927Z,18.80
2019-02-24T01:08:53.247Z,18.75
2019-02-24T01:11:19.475Z,16.93
2019-02-24T01:13:45.694Z,18.85
2019-02-24T01:16:11.939Z,15.10
2019-02-24T01:18:38.178Z,17.75
2019-02-24T01:21:04.714Z,18.87
2019-02-24T01:23:30.935Z,18.80
2019-02-24T01:25:57.152Z,15.45
2019-02-24T01:28:25.497Z,18.77
2019-02-24T01:30:51.749Z,21.05
2019-02-24T01:33:18.002Z,19.45
2019-02-24T01:35:44.224Z,17.65
2019-02-24T01:38:10.475Z,20.88
2019-02-24T01:40:36.696Z,19.25
2019-02-24T01:43:03.057Z,16.87
2019-02-24T01:45:29.322Z,17.02
2019-02-24T01:47:55.561Z,17.50
2019-02-24T01:50:21.796Z,17.62
2019-02-24T01:52:48.012Z,18.82
2019-02-24T01:55:14.597Z,17.07
2019-02-24T01:57:40.818Z,16.93
2019-02-24T02:00:08.976Z,17.70
2019-02-24T02:02:35.494Z,20.70
2019-02-24T02:05:02.475Z,19.12
2019-02-24T02:07:28.819Z,17.07
2019-02-24T02:09:55.043Z,20.57
2019-02-24T02:12:21.293Z,17.42
2019-02-24T02:14:47.546Z,18.10
2019-02-24T02:17:13.770Z,18.67
2019-02-24T02:19:40.342Z,21.48
2019-02-24T02:22:06.583Z,18.12
2019-02-24T02:24:33.130Z,21.37
2019-02-24T02:26:59.464Z,17.70
2019-02-24T02:29:25.687Z,18.45
2019-02-24T02:31:52.127Z,18.12
2019-02-24T02:34:18.355Z,22.10
2019-02-24T02:36:44.580Z,20.10
2019-02-24T02:39:10.923Z,23.25
2019-02-24T02:41:38.966Z,18.92
2019-02-24T02:44:05.492Z,20.40
2019-02-24T02:46:31.735Z,20.43
2019-02-24T02:48:57.947Z,19.95
2019-02-24T02:51:24.305Z,20.10
2019-02-24T02:53:50.542Z,22.85
2019-02-24T02:56:16.764Z,17.25
2019-02-24T02:58:43.395Z,21.90
2019-02-24T03:01:09.635Z,21.65
2019-02-24T03:03:35.977Z,19.32
2019-02-24T03:06:07.030Z,20.97
2019-02-24T03:08:50.451Z,18.30
2019-02-24T03:11:17.063Z,21.55
2019-02-24T03:13:43.384Z,19.60
2019-02-24T03:16:09.630Z,23.38
2019-02-24T03:18:36.474Z,22.90
2019-02-24T03:21:02.680Z,20.88
2019-02-24T03:23:29.227Z,22.93
2019-02-24T03:25:55.471Z,23.00
2019-02-24T03:28:21.726Z,20.57
2019-02-24T03:30:47.954Z,20.65
2019-02-24T03:33:14.175Z,20.02
2019-02-24T03:35:40.416Z,18.67
2019-02-24T03:38:07.031Z,19.80
2019-02-24T03:40:33.483Z,19.40
2019-02-24T03:42:59.747Z,20.37
2019-02-24T03:45:25.967Z,19.87
2019-02-24T03:47:52.251Z,20.72
2019-02-24T03:50:18.872Z,17.40
2019-02-24T03:52:45.123Z,22.00
2019-02-24T03:55:11.346Z,22.05
2019-02-24T03:57:37.562Z,19.57
2019-02-24T04:00:05.291Z,20.23
2019-02-24T04:02:31.511Z,19.75
2019-02-24T04:04:57.769Z,20.50
2019-02-24T04:07:23.970Z,23.55
2019-02-24T04:09:50.184Z,18.52
2019-02-24T04:12:16.455Z,20.50
2019-02-24T04:14:42.670Z,20.32
2019-02-24T04:17:08.910Z,21.07
2019-02-24T04:19:35.137Z,20.85
2019-02-24T04:22:01.379Z,21.30
2019-02-24T04:24:27.591Z,20.00
2019-02-24T04:26:53.832Z,19.90
2019-02-24T04:29:24.773Z,18.60
2019-02-24T04:31:48.085Z,19.30
2019-02-24T04:34:14.304Z,22.40
2019-02-24T04:36:40.908Z,19.52
2019-02-24T04:39:07.144Z,21.62
2019-02-24T04:41:33.366Z,18.95
2019-02-24T04:43:59.593Z,24.50
2019-02-24T04:46:25.829Z,21.75
2019-02-24T04:48:52.079Z,21.68
2019-02-24T04:51:18.390Z,20.17
2019-02-24T04:53:44.913Z,21.80
2019-02-24T04:56:11.127Z,23.25
2019-02-24T04:58:37.347Z,20.57
2019-02-24T05:01:03.589Z,21.45
2019-02-24T05:03:29.802Z,19.02
2019-02-24T05:05:56.055Z,21.97
2019-02-24T05:08:22.287Z,21.15
2019-02-24T05:10:48.503Z,29.65
2019-02-24T05:13:14.842Z,19.98
2019-02-24T05:15:41.052Z,22.55
2019-02-24T05:18:07.309Z,19.77
2019-02-24T05:20:33.530Z,25.00
2019-02-24T05:22:59.741Z,21.62
2019-02-24T05:25:25.998Z,24.10
2019-02-24T05:27:52.232Z,20.32
2019-02-24T05:30:18.491Z,24.72
2019-02-24T05:32:44.783Z,21.87
2019-02-24T05:35:11.074Z,22.25
2019-02-24T05:37:37.328Z,23.80
2019-02-24T05:40:04.530Z,21.42
2019-02-24T05:42:30.791Z,25.02
2019-02-24T05:44:56.999Z,23.07
2019-02-24T05:47:23.621Z,24.32
2019-02-24T05:49:49.853Z,25.25
2019-02-24T05:52:16.066Z,22.70
2019-02-24T05:54:42.309Z,23.02
2019-02-24T05:57:08.843Z,25.10
2019-02-24T05:59:35.046Z,20.88
2019-02-24T06:02:01.283Z,22.95
2019-02-24T06:04:27.500Z,23.55
2019-02-24T06:06:53.745Z,23.25
2019-02-24T06:09:19.958Z,26.05
2019-02-24T06:11:46.520Z,23.75
2019-02-24T06:14:13.048Z,21.73
2019-02-24T06:16:39.578Z,22.95
2019-02-24T06:19:05.827Z,25.17
2019-02-24T06:21:32.031Z,24.43
2019-02-24T06:23:58.242Z,24.30
2019-02-24T06:26:24.471Z,24.15
2019-02-24T06:28:51.039Z,25.17
2019-02-24T06:31:17.289Z,24.95
2019-02-24T06:33:43.607Z,24.30
2019-02-24T06:36:09.814Z,27.60
2019-02-24T06:38:36.057Z,22.58
2019-02-24T06:41:02.277Z,24.52
2019-02-24T06:43:28.994Z,23.47
2019-02-24T06:45:55.253Z,23.60
2019-02-24T06:48:21.491Z,23.90
2019-02-24T06:50:58.251Z,24.95
2019-02-24T06:53:25.003Z,22.82
2019-02-24T06:55:51.211Z,27.30
2019-02-24T06:58:18.542Z,25.00
2019-02-24T07:00:44.899Z,24.87
2019-02-24T07:03:11.454Z,27.05
2019-02-24T07:05:37.658Z,23.70
2019-02-24T07:08:03.880Z,24.25
2019-02-24T07:10:30.114Z,23.47
2019-02-24T07:12:56.325Z,24.00
2019-02-24T07:15:22.603Z,22.52
2019-02-24T07:17:48.802Z,22.22
2019-02-24T07:20:15.354Z,24.00
2019-02-24T07:22:41.891Z,25.85
2019-02-24T07:25:08.108Z,23.40
2019-02-24T07:27:34.654Z,25.45
2019-02-24T07:30:00.875Z,24.87
2019-02-24T07:32:27.086Z,22.52
2019-02-24T07:34:53.321Z,25.43
2019-02-24T07:37:19.536Z,24.82
2019-02-24T07:39:46.147Z,23.20
2019-02-24T07:42:12.358Z,21.60
2019-02-24T07:44:38.606Z,23.18
2019-02-24T07:47:04.827Z,23.98
2019-02-24T07:49:31.454Z,23.92
2019-02-24T07:51:57.694Z,22.50
2019-02-24T07:54:25.238Z,25.25
2019-02-24T07:56:51.454Z,23.38
2019-02-24T07:59:17.751Z,22.67
2019-02-24T08:01:43.935Z,24.47
2019-02-24T08:04:10.224Z,24.10
2019-02-24T08:06:36.550Z,22.75
2019-02-24T08:09:03.459Z,23.07
2019-02-24T08:11:29.711Z,23.95
2019-02-24T08:13:55.964Z,22.02
2019-02-24T08:16:24.591Z,22.48
2019-02-24T08:18:52.039Z,19.90
2019-02-24T08:21:19.957Z,20.60
2019-02-24T08:23:46.668Z,20.62
2019-02-24T08:26:20.186Z,28.45
2019-02-24T08:28:46.424Z,22.30
2019-02-24T08:31:12.959Z,22.45
2019-02-24T08:33:39.172Z,21.23
2019-02-24T08:36:05.410Z,22.20
2019-02-24T08:38:31.766Z,19.30
2019-02-24T08:40:58.374Z,21.50
2019-02-24T08:43:24.774Z,18.67
2019-02-24T08:45:51.314Z,19.23
2019-02-24T08:48:19.184Z,19.95
2019-02-24T08:50:45.890Z,20.35
2019-02-24T08:53:12.243Z,23.02
2019-02-24T08:55:39.262Z,22.55
2019-02-24T08:58:05.635Z,20.72
2019-02-24T09:00:31.962Z,20.55
2019-02-24T09:02:58.423Z,21.90
2019-02-24T09:05:25.816Z,21.42
2019-02-24T09:07:52.145Z,21.05
2019-02-24T09:10:18.541Z,22.40
2019-02-24T09:12:44.766Z,20.17
2019-02-24T09:15:12.222Z,19.90
2019-02-24T09:17:38.560Z,20.25
2019-02-24T09:20:08.394Z,21.30
2019-02-24T09:22:34.619Z,20.45
2019-02-24T09:25:03.236Z,20.32
2019-02-24T09:27:28.975Z,18.17
2019-02-24T09:29:55.198Z,20.92
2019-02-24T09:32:21.820Z,20.10
2019-02-24T09:34:48.210Z,25.45
2019-02-24T09:37:14.687Z,17.67
2019-02-24T09:39:40.938Z,22.30
2019-02-24T09:42:07.464Z,21.35
2019-02-24T09:44:34.037Z,20.55
2019-02-24T09:47:00.264Z,22.07
2019-02-24T09:49:26.870Z,22.35
2019-02-24T09:51:53.200Z,19.77
2019-02-24T09:54:19.677Z,19.95
2019-02-24T09:56:45.919Z,21.57
2019-02-24T09:59:13.459Z,20.02
2019-02-24T10:01:40.069Z,17.87
2019-02-24T10:04:06.286Z,17.35
2019-02-24T10:06:32.814Z,18.87
2019-02-24T10:08:59.599Z,20.85
2019-02-24T10:11:26.194Z,18.73
2019-02-24T10:13:52.749Z,20.62
2019-02-24T10:16:19.068Z,19.20
2019-02-24T10:18:46.581Z,18.20
2019-02-24T10:21:12.937Z,20.80
2019-02-24T10:23:39.490Z,21.65
2019-02-24T10:26:05.749Z,21.57
2019-02-24T10:28:31.961Z,19.30
2019-02-24T10:30:58.496Z,26.50
2019-02-24T10:33:24.727Z,21.03
2019-02-24T10:35:51.246Z,21.33
2019-02-24T10:38:17.490Z,23.65
2019-02-24T10:40:43.771Z,23.18
2019-02-24T10:43:13.704Z,23.43
2019-02-24T10:45:39.966Z,28.87
2019-02-24T10:48:13.826Z,21.00
2019-02-24T10:50:34.336Z,26.80
2019-02-24T10:53:00.550Z,45.53
2019-02-24T10:55:26.856Z,24.98
2019-02-24T10:57:54.206Z,25.87
2019-02-24T11:00:20.917Z,23.93
2019-02-24T11:02:47.438Z,21.50
2019-02-24T11:05:15.012Z,22.23
2019-02-24T11:07:42.345Z,22.17
2019-02-24T11:10:09.007Z,25.63
2019-02-24T11:12:35.540Z,20.07
2019-02-24T11:15:02.382Z,24.10
2019-02-24T11:17:28.719Z,23.07
2019-02-24T11:19:54.979Z,23.00
2019-02-24T11:22:21.203Z,19.83
2019-02-24T11:24:47.528Z,22.43
2019-02-24T11:27:13.834Z,22.33
2019-02-24T11:29:40.059Z,21.07
2019-02-24T11:32:06.274Z,19.40
2019-02-24T11:34:35.522Z,22.97
2019-02-24T11:37:01.778Z,20.50
2019-02-24T11:39:28.047Z,22.47
2019-02-24T11:41:54.551Z,21.50
2019-02-24T11:44:20.762Z,21.57
2019-02-24T11:46:47.026Z,20.60
2019-02-24T11:49:13.630Z,20.40
2019-02-24T11:51:39.939Z,21.17
2019-02-24T11:54:06.273Z,22.53
2019-02-24T11:56:32.483Z,22.03
2019-02-24T11:58:58.732Z,21.30
2019-02-24T12:01:25.250Z,23.20
2019-02-24T12:03:51.518Z,19.57
2019-02-24T12:06:20.098Z,22.50
2019-02-24T12:08:46.662Z,21.60
2019-02-24T12:11:32.765Z,20.20
2019-02-24T12:13:59.002Z,21.40
2019-02-24T12:16:25.827Z,21.00
2019-02-24T12:18:52.064Z,20.90
2019-02-24T12:21:18.687Z,24.10
2019-02-24T12:23:45.307Z,20.17
2019-02-24T12:26:11.672Z,21.20
2019-02-24T12:28:37.938Z,21.93
2019-02-24T12:31:04.311Z,21.60
2019-02-24T12:33:30.514Z,19.93
2019-02-24T12:35:56.798Z,22.30
2019-02-24T12:38:23.036Z,23.33
2019-02-24T12:40:49.643Z,20.70
2019-02-24T12:43:15.935Z,23.67
2019-02-24T12:45:42.213Z,17.37
2019-02-24T12:48:08.552Z,20.00
2019-02-24T12:50:34.808Z,23.00
2019-02-24T12:53:01.375Z,18.90
2019-02-24T12:55:27.739Z,18.83
2019-02-24T12:57:53.975Z,16.50
2019-02-24T13:00:24.690Z,16.50
2019-02-24T13:02:51.020Z,17.37
2019-02-24T13:05:17.367Z,18.90
2019-02-24T13:07:43.595Z,17.90
2019-02-24T13:10:14.907Z,16.70
2019-02-24T13:12:41.194Z,16.83
2019-02-24T13:15:08.223Z,16.10
2019-02-24T13:17:34.830Z,16.37
2019-02-24T13:20:01.078Z,18.20
2019-02-24T13:22:27.691Z,16.10
2019-02-24T13:24:53.946Z,13.20
2019-02-24T13:27:20.681Z,16.53
2019-02-24T13:29:47.290Z,15.60
2019-02-24T13:32:15.125Z,17.43
2019-02-24T13:34:41.521Z,21.70
2019-02-24T13:37:08.030Z,18.10
2019-02-24T13:39:34.706Z,19.23
2019-02-24T13:42:00.946Z,16.87
2019-02-24T13:44:27.620Z,17.20
2019-02-24T13:46:54.170Z,18.90
2019-02-24T13:49:20.406Z,15.93
2019-02-24T13:51:46.671Z,14.20
2019-02-24T13:54:13.036Z,19.03
2019-02-24T13:56:39.600Z,17.70
2019-02-24T13:59:06.246Z,18.03
2019-02-24T14:01:32.512Z,18.00
2019-02-24T14:03:58.754Z,16.70
2019-02-24T14:06:25.446Z,18.10
2019-02-24T14:08:51.969Z,18.80
2019-02-24T14:11:18.221Z,18.63
2019-02-24T14:13:44.462Z,18.73
2019-02-24T14:16:10.665Z,16.30
2019-02-24T14:18:36.935Z,17.20
2019-02-24T14:21:03.733Z,15.40
2019-02-24T14:23:30.379Z,17.70
2019-02-24T14:25:56.608Z,15.50
2019-02-24T14:28:23.379Z,15.87
2019-02-24T14:30:50.192Z,16.40
2019-02-24T14:33:16.467Z,17.63
2019-02-24T14:35:42.692Z,18.90
2019-02-24T14:38:09.271Z,19.40
2019-02-24T14:40:35.820Z,17.00
2019-02-24T14:43:02.064Z,18.93
2019-02-24T14:45:28.314Z,15.30
2019-02-24T14:47:54.546Z,17.00
2019-02-24T14:50:21.129Z,18.33
2019-02-24T14:52:47.523Z,16.33
2019-02-24T14:55:14.930Z,17.80
2019-02-24T14:57:41.604Z,16.53
2019-02-24T15:00:16.707Z,17.60
2019-02-24T15:02:43.044Z,17.90
2019-02-24T15:05:11.698Z,17.57
2019-02-24T15:07:38.065Z,16.50
2019-02-24T15:10:08.483Z,16.83
2019-02-24T15:12:35.760Z,17.27
2019-02-24T15:15:03.067Z,17.13
2019-02-24T15:17:29.318Z,17.07
2019-02-24T15:19:55.855Z,18.70
2019-02-24T15:22:22.119Z,18.77
2019-02-24T15:24:48.335Z,17.37
2019-02-24T15:27:16.883Z,17.13
2019-02-24T15:29:43.148Z,17.27
2019-02-24T15:32:09.662Z,16.33
2019-02-24T15:34:36.198Z,16.27
2019-02-24T15:37:06.865Z,16.50
2019-02-24T15:39:33.562Z,16.53
2019-02-24T15:42:00.182Z,16.17
2019-02-24T15:44:27.232Z,13.80
2019-02-24T15:46:53.428Z,16.00
2019-02-24T15:49:19.722Z,15.33
2019-02-24T15:51:45.989Z,17.83
2019-02-24T15:54:12.902Z,15.73
2019-02-24T15:56:40.400Z,15.47
2019-02-24T15:59:06.602Z,15.30
2019-02-24T16:01:32.834Z,15.47
2019-02-24T16:03:59.101Z,15.03
2019-02-24T16:06:25.314Z,15.87
2019-02-24T16:08:51.885Z,13.63
2019-02-24T16:11:18.122Z,13.90
2019-02-24T16:13:45.662Z,13.13
2019-02-24T16:16:12.013Z,15.27
2019-02-24T16:18:38.538Z,15.47
2019-02-24T16:21:05.067Z,12.63
2019-02-24T16:23:31.600Z,18.50
2019-02-24T16:25:58.150Z,17.20
2019-02-24T16:28:24.414Z,16.93
2019-02-24T16:30:50.919Z,16.40
2019-02-24T16:33:17.851Z,14.80
2019-02-24T16:35:44.149Z,12.67
2019-02-24T16:38:10.379Z,15.13
2019-02-24T16:40:36.955Z,14.20
2019-02-24T16:43:03.683Z,17.00
2019-02-24T16:45:30.338Z,15.57
2019-02-24T16:47:56.906Z,18.57
2019-02-24T16:50:23.758Z,17.10
2019-02-24T16:52:50.034Z,19.43
2019-02-24T16:55:16.880Z,13.50
2019-02-24T16:57:43.234Z,16.30
2019-02-24T17:00:16.029Z,17.10
2019-02-24T17:02:42.211Z,15.33
2019-02-24T17:05:08.873Z,16.57
2019-02-24T17:07:35.402Z,16.90
2019-02-24T17:10:03.587Z,19.40
2019-02-24T17:12:29.827Z,15.07
2019-02-24T17:14:56.486Z,19.43
2019-02-24T17:17:22.998Z,16.60
2019-02-24T17:19:49.309Z,22.93
2019-02-24T17:22:15.866Z,31.10
2019-02-24T17:24:42.391Z,29.03
2019-02-24T17:27:08.631Z,32.40
2019-02-24T17:29:34.859Z,34.93
2019-02-24T17:32:01.121Z,26.70
2019-02-24T17:34:27.353Z,28.73
2019-02-24T17:36:53.584Z,26.47
2019-02-24T17:39:19.842Z,27.87
2019-02-24T17:41:46.067Z,45.90
2019-02-24T17:44:12.341Z,46.60
2019-02-24T17:46:38.562Z,49.83
2019-02-24T17:49:04.795Z,46.80
2019-02-24T17:51:31.056Z,40.77
2019-02-24T17:53:57.388Z,41.83
2019-02-24T17:56:23.976Z,32.37
2019-02-24T17:58:51.589Z,32.40
2019-02-24T18:01:18.379Z,31.23
2019-02-24T18:03:44.587Z,33.03
2019-02-24T18:06:10.816Z,26.93
2019-02-24T18:08:37.062Z,28.77
2019-02-24T18:11:03.578Z,31.97
2019-02-24T18:13:29.930Z,39.00
2019-02-24T18:15:56.151Z,33.80
2019-02-24T18:18:22.430Z,34.57
2019-02-24T18:20:48.631Z,30.97
2019-02-24T18:23:14.898Z,30.07
2019-02-24T18:25:41.096Z,27.60
2019-02-24T18:28:07.315Z,30.33
2019-02-24T18:30:33.591Z,30.93
2019-02-24T18:32:59.841Z,26.10
2019-02-24T18:35:26.046Z,23.70
2019-02-24T18:37:52.291Z,25.90
2019-02-24T18:40:18.524Z,29.83
2019-02-24T18:42:44.780Z,27.30
2019-02-24T18:45:14.718Z,21.17
2019-02-24T18:47:41.437Z,26.23
2019-02-24T18:50:10.836Z,25.70
2019-02-24T18:52:37.390Z,22.60
2019-02-24T18:55:06.845Z,25.47
2019-02-24T18:57:33.634Z,22.53
2019-02-24T19:00:00.310Z,21.57
2019-02-24T19:02:27.015Z,24.17
2019-02-24T19:04:53.341Z,21.97
2019-02-24T19:07:19.584Z,25.63
2019-02-24T19:09:45.814Z,26.77
2019-02-24T19:12:12.067Z,23.93
2019-02-24T19:14:38.289Z,23.37
2019-02-24T19:17:04.900Z,29.23
2019-02-24T19:19:31.129Z,24.93
2019-02-24T19:21:57.386Z,23.00
2019-02-24T19:24:23.651Z,26.73
2019-02-24T19:26:49.892Z,24.57
2019-02-24T19:29:16.132Z,25.23
2019-02-24T19:31:42.396Z,26.00
2019-02-24T19:34:08.623Z,25.80
2019-02-24T19:36:34.887Z,23.00
2019-02-24T19:39:01.127Z,24.83
2019-02-24T19:41:27.348Z,24.17
2019-02-24T19:43:53.590Z,24.23
2019-02-24T19:46:19.831Z,24.27
2019-02-24T19:48:46.087Z,26.27
2019-02-24T19:51:12.602Z,22.67
2019-02-24T19:53:39.138Z,26.50
2019-02-24T19:56:05.378Z,24.00
2019-02-24T19:58:31.605Z,26.93
2019-02-24T20:00:57.837Z,26.37
2019-02-24T20:03:24.051Z,26.53
2019-02-24T20:05:50.270Z,25.67
2019-02-24T20:08:16.826Z,24.30
2019-02-24T20:10:43.039Z,21.23
2019-02-24T20:13:09.283Z,26.20
2019-02-24T20:15:35.924Z,27.57
2019-02-24T20:18:02.163Z,23.57
2019-02-24T20:20:28.388Z,28.20
2019-02-24T20:22:54.630Z,30.33
2019-02-24T20:25:21.758Z,28.80
2019-02-24T20:27:48.414Z,26.33
2019-02-24T20:30:20.164Z,31.47
2019-02-24T20:32:46.385Z,35.53
2019-02-24T20:35:13.025Z,38.47
2019-02-24T20:37:39.243Z,32.60
2019-02-24T20:40:07.988Z,34.37
2019-02-24T20:42:34.199Z,37.73
2019-02-24T20:45:00.489Z,38.73
2019-02-24T20:47:26.737Z,39.43
2019-02-24T20:49:52.971Z,33.43
2019-02-24T20:52:19.207Z,34.00
2019-02-24T20:54:45.422Z,27.40
2019-02-24T20:57:11.658Z,29.87
2019-02-24T20:59:37.886Z,27.77
2019-02-24T21:02:04.509Z,30.50
2019-02-24T21:04:30.842Z,26.73
2019-02-24T21:06:57.085Z,26.50
2019-02-24T21:09:23.302Z,29.67
2019-02-24T21:11:49.533Z,25.17
2019-02-24T21:14:15.774Z,26.03
2019-02-24T21:16:42.046Z,29.33
2019-02-24T21:19:08.287Z,27.60
2019-02-24T21:21:34.594Z,27.13
2019-02-24T21:24:01.679Z,26.37
2019-02-24T21:26:27.903Z,29.43
2019-02-24T21:28:54.175Z,25.77
2019-02-24T21:31:20.572Z,28.67
2019-02-24T21:33:46.819Z,27.10
2019-02-24T21:36:13.470Z,27.57
2019-02-24T21:38:42.771Z,29.70
2019-02-24T21:41:09.324Z,26.07
2019-02-24T21:43:35.714Z,29.52
2019-02-24T21:46:02.029Z,30.43
2019-02-24T21:48:28.742Z,25.97
2019-02-24T21:50:56.066Z,26.23
2019-02-24T21:53:22.600Z,25.97
2019-02-24T21:55:49.044Z,25.60
2019-02-24T21:58:16.857Z,25.67
2019-02-24T22:00:43.264Z,28.40
2019-02-24T22:03:09.530Z,31.12
2019-02-24T22:05:35.929Z,30.80
2019-02-24T22:08:02.638Z,30.40
2019-02-24T22:10:30.921Z,27.70
2019-02-24T22:13:00.107Z,29.40
2019-02-24T22:15:26.513Z,27.25
2019-02-24T22:17:52.943Z,25.17
2019-02-24T22:20:19.530Z,26.35
2019-02-24T22:22:45.917Z,24.57
2019-02-24T22:25:13.615Z,27.98
2019-02-24T22:27:39.864Z,26.30
2019-02-24T22:30:15.163Z,30.80
2019-02-24T22:32:43.851Z,30.60
2019-02-24T22:35:10.350Z,35.20
2019-02-24T22:37:37.039Z,31.37
2019-02-24T22:40:09.876Z,33.25
2019-02-24T22:42:36.465Z,30.68
2019-02-24T22:45:05.227Z,29.48
2019-02-24T22:47:31.567Z,32.15
2019-02-24T22:49:57.882Z,27.95
2019-02-24T22:52:24.194Z,27.75
2019-02-24T22:54:50.562Z,32.08
2019-02-24T22:57:17.081Z,26.90
2019-02-24T22:59:43.735Z,26.55
2019-02-24T23:02:11.282Z,27.93
2019-02-24T23:04:37.509Z,23.40
2019-02-24T23:07:04.405Z,26.85
2019-02-24T23:09:32.420Z,26.93
2019-02-24T23:11:58.844Z,29.55
2019-02-24T23:14:25.277Z,27.30
2019-02-24T23:16:51.719Z,29.02
2019-02-24T23:19:18.013Z,24.23
2019-02-24T23:21:44.591Z,29.75
2019-02-24T23:24:10.996Z,26.25
2019-02-24T23:26:37.414Z,22.73
2019-02-24T23:29:03.983Z,23.25
2019-02-24T23:31:30.256Z,23.30
2019-02-24T23:33:56.535Z,27.55
2019-02-24T23:36:23.120Z,28.70
2019-02-24T23:38:49.658Z,25.25
2019-02-24T23:41:15.946Z,24.75
2019-02-24T23:43:42.569Z,23.85
2019-02-24T23:46:09.049Z,22.93
2019-02-24T23:48:35.713Z,26.05
2019-02-24T23:51:02.133Z,24.65
2019-02-24T23:53:28.393Z,24.87
2019-02-24T23:55:57.837Z,23.52
2019-02-24T23:58:25.838Z,25.88
